sensor_id;sensor_type;location;lat;lon;timestamp;pressure;altitude;pressure_sealevel;temperature;humidity
62544;BME280;48597;49.030;1.822;2023-04-08T00:00:48;101471.47;;;19.38;40.16
62544;BME280;48597;49.030;1.822;2023-04-08T00:03:13;101471.47;;;19.38;40.14
62544;BME280;48597;49.030;1.822;2023-04-08T00:05:38;101467.81;;;19.38;40.18
62544;BME280;48597;49.030;1.822;2023-04-08T00:08:04;101473.53;;;19.38;40.09
62544;BME280;48597;49.030;1.822;2023-04-08T00:10:30;101476.81;;;19.36;40.12
62544;BME280;48597;49.030;1.822;2023-04-08T00:12:55;101473.13;;;19.36;40.06
62544;BME280;48597;49.030;1.822;2023-04-08T00:15:21;101466.59;;;19.35;40.11
62544;BME280;48597;49.030;1.822;2023-04-08T00:17:46;101469.47;;;19.35;40.05
62544;BME280;48597;49.030;1.822;2023-04-08T00:20:12;101473.13;;;19.36;40.13
62544;BME280;48597;49.030;1.822;2023-04-08T00:22:37;101469.47;;;19.35;39.82
62544;BME280;48597;49.030;1.822;2023-04-08T00:25:03;101468.66;;;19.35;40.01
62544;BME280;48597;49.030;1.822;2023-04-08T00:27:31;101473.59;;;19.34;40.04
62544;BME280;48597;49.030;1.822;2023-04-08T00:29:57;101472.31;;;19.35;40.08
62544;BME280;48597;49.030;1.822;2023-04-08T00:32:24;101468.66;;;19.35;40.06
62544;BME280;48597;49.030;1.822;2023-04-08T00:34:50;101477.25;;;19.35;39.91
62544;BME280;48597;49.030;1.822;2023-04-08T00:37:15;101474.38;;;19.35;39.75
62544;BME280;48597;49.030;1.822;2023-04-08T00:39:41;101471.53;;;19.35;39.94
62544;BME280;48597;49.030;1.822;2023-04-08T00:42:07;101478.03;;;19.35;39.80
62544;BME280;48597;49.030;1.822;2023-04-08T00:44:32;101471.53;;;19.35;39.90
62544;BME280;48597;49.030;1.822;2023-04-08T00:46:58;101476.00;;;19.36;39.77
62544;BME280;48597;49.030;1.822;2023-04-08T00:49:24;101478.84;;;19.36;39.64
62544;BME280;48597;49.030;1.822;2023-04-08T00:51:50;101481.28;;;19.37;39.82
62544;BME280;48597;49.030;1.822;2023-04-08T00:54:15;101475.56;;;19.37;39.87
62544;BME280;48597;49.030;1.822;2023-04-08T00:56:42;101478.00;;;19.39;39.73
62544;BME280;48597;49.030;1.822;2023-04-08T00:59:08;101477.19;;;19.38;39.64
62544;BME280;48597;49.030;1.822;2023-04-08T01:01:54;101480.84;;;19.39;39.79
62544;BME280;48597;49.030;1.822;2023-04-08T01:07:16;101476.31;;;19.41;39.72
62544;BME280;48597;49.030;1.822;2023-04-08T01:09:46;101483.28;;;19.40;39.77
62544;BME280;48597;49.030;1.822;2023-04-08T01:12:19;101477.94;;;19.42;39.69
62544;BME280;48597;49.030;1.822;2023-04-08T01:14:47;101477.53;;;19.44;39.74
62544;BME280;48597;49.030;1.822;2023-04-08T01:17:13;101467.69;;;19.45;39.74
62544;BME280;48597;49.030;1.822;2023-04-08T01:19:41;101478.72;;;19.46;39.74
62544;BME280;48597;49.030;1.822;2023-04-08T01:22:28;101471.75;;;19.47;39.75
62544;BME280;48597;49.030;1.822;2023-04-08T01:25:04;101472.53;;;19.48;39.66
62544;BME280;48597;49.030;1.822;2023-04-08T01:27:32;101482.75;;;19.49;39.75
62544;BME280;48597;49.030;1.822;2023-04-08T01:30:00;101477.84;;;19.49;39.59
62544;BME280;48597;49.030;1.822;2023-04-08T01:32:28;101472.94;;;19.50;39.56
62544;BME280;48597;49.030;1.822;2023-04-08T01:34:55;101472.94;;;19.50;39.49
62544;BME280;48597;49.030;1.822;2023-04-08T01:37:22;101476.59;;;19.50;39.50
62544;BME280;48597;49.030;1.822;2023-04-08T01:39:49;101481.09;;;19.51;39.46
62544;BME280;48597;49.030;1.822;2023-04-08T01:42:16;101474.56;;;19.51;39.50
62544;BME280;48597;49.030;1.822;2023-04-08T01:44:42;101477.00;;;19.52;39.45
62544;BME280;48597;49.030;1.822;2023-04-08T01:47:09;101469.22;;;19.53;39.25
62544;BME280;48597;49.030;1.822;2023-04-08T01:49:37;101480.22;;;19.54;39.42
62544;BME280;48597;49.030;1.822;2023-04-08T01:52:03;101470.84;;;19.54;39.38
62544;BME280;48597;49.030;1.822;2023-04-08T01:54:29;101466.75;;;19.55;39.28
62544;BME280;48597;49.030;1.822;2023-04-08T01:56:56;101474.88;;;19.56;39.31
62544;BME280;48597;49.030;1.822;2023-04-08T01:59:23;101487.94;;;19.57;39.28
62544;BME280;48597;49.030;1.822;2023-04-08T02:01:52;101482.22;;;19.57;39.31
62544;BME280;48597;49.030;1.822;2023-04-08T02:04:18;101478.13;;;19.58;39.30
62544;BME280;48597;49.030;1.822;2023-04-08T02:06:44;101482.59;;;19.59;39.32
62544;BME280;48597;49.030;1.822;2023-04-08T02:09:09;101487.06;;;19.60;39.35
62544;BME280;48597;49.030;1.822;2023-04-08T02:11:35;101480.91;;;19.62;39.34
62544;BME280;48597;49.030;1.822;2023-04-08T02:14:00;101482.53;;;19.63;39.39
62544;BME280;48597;49.030;1.822;2023-04-08T02:16:52;101485.75;;;19.65;39.28
62544;BME280;48597;49.030;1.822;2023-04-08T02:19:31;101482.47;;;19.67;39.33
62544;BME280;48597;49.030;1.822;2023-04-08T02:22:11;101482.84;;;19.69;39.40
62544;BME280;48597;49.030;1.822;2023-04-08T02:24:41;101480.38;;;19.71;39.35
62544;BME280;48597;49.030;1.822;2023-04-08T02:27:09;101480.28;;;19.74;39.22
62544;BME280;48597;49.030;1.822;2023-04-08T02:29:35;101490.47;;;19.75;39.26
62544;BME280;48597;49.030;1.822;2023-04-08T02:32:04;101479.03;;;19.75;39.16
62544;BME280;48597;49.030;1.822;2023-04-08T02:34:30;101478.97;;;19.79;39.26
62544;BME280;48597;49.030;1.822;2023-04-08T02:36:57;101484.28;;;19.80;39.19
62544;BME280;48597;49.030;1.822;2023-04-08T02:39:30;101490.38;;;19.82;39.17
62544;BME280;48597;49.030;1.822;2023-04-08T02:41:56;101477.25;;;19.85;39.06
62544;BME280;48597;49.030;1.822;2023-04-08T02:44:22;101492.66;;;19.91;39.03
62544;BME280;48597;49.030;1.822;2023-04-08T02:46:48;101483.66;;;19.92;39.12
62544;BME280;48597;49.030;1.822;2023-04-08T02:49:13;101487.31;;;19.93;39.00
62544;BME280;48597;49.030;1.822;2023-04-08T02:51:38;101476.25;;;19.95;39.00
62544;BME280;48597;49.030;1.822;2023-04-08T02:54:04;101487.63;;;19.98;39.02
62544;BME280;48597;49.030;1.822;2023-04-08T02:56:29;101490.94;;;19.97;38.86
62544;BME280;48597;49.030;1.822;2023-04-08T02:58:55;101482.72;;;19.99;38.98
62544;BME280;48597;49.030;1.822;2023-04-08T03:01:20;101480.56;;;20.03;38.96
62544;BME280;48597;49.030;1.822;2023-04-08T03:03:46;101480.16;;;20.05;38.90
62544;BME280;48597;49.030;1.822;2023-04-08T03:06:11;101473.19;;;20.06;39.00
62544;BME280;48597;49.030;1.822;2023-04-08T03:08:37;101480.09;;;20.08;38.83
62544;BME280;48597;49.030;1.822;2023-04-08T03:11:02;101479.66;;;20.10;38.82
62544;BME280;48597;49.030;1.822;2023-04-08T03:13:27;101487.88;;;20.08;38.74
62544;BME280;48597;49.030;1.822;2023-04-08T03:15:54;101488.69;;;20.08;38.83
62544;BME280;48597;49.030;1.822;2023-04-08T03:18:19;101474.38;;;20.08;38.84
62544;BME280;48597;49.030;1.822;2023-04-08T03:20:45;101491.09;;;20.10;38.78
62544;BME280;48597;49.030;1.822;2023-04-08T03:23:11;101486.19;;;20.10;38.63
62544;BME280;48597;49.030;1.822;2023-04-08T03:25:36;101486.19;;;20.10;38.62
62544;BME280;48597;49.030;1.822;2023-04-08T03:28:02;101485.38;;;20.10;38.59
62544;BME280;48597;49.030;1.822;2023-04-08T03:30:27;101482.50;;;20.10;38.41
62544;BME280;48597;49.030;1.822;2023-04-08T03:32:52;101473.94;;;20.10;38.61
62544;BME280;48597;49.030;1.822;2023-04-08T03:35:18;101477.59;;;20.10;38.51
62544;BME280;48597;49.030;1.822;2023-04-08T03:37:43;101478.41;;;20.11;38.58
62544;BME280;48597;49.030;1.822;2023-04-08T03:40:09;101474.75;;;20.10;38.56
62544;BME280;48597;49.030;1.822;2023-04-08T03:42:35;101479.66;;;20.10;38.42
62544;BME280;48597;49.030;1.822;2023-04-08T03:45:00;101481.28;;;20.11;38.37
62544;BME280;48597;49.030;1.822;2023-04-08T03:47:26;101483.75;;;20.09;38.35
62544;BME280;48597;49.030;1.822;2023-04-08T03:49:52;101476.78;;;20.10;38.31
62544;BME280;48597;49.030;1.822;2023-04-08T03:52:19;101484.56;;;20.09;38.05
62544;BME280;48597;49.030;1.822;2023-04-08T03:54:44;101478.47;;;20.07;38.12
62544;BME280;48597;49.030;1.822;2023-04-08T03:57:09;101469.06;;;20.07;38.13
62544;BME280;48597;49.030;1.822;2023-04-08T03:59:36;101478.91;;;20.06;38.08
62544;BME280;48597;49.030;1.822;2023-04-08T04:02:03;101480.53;;;20.07;38.17
62544;BME280;48597;49.030;1.822;2023-04-08T04:04:29;101475.22;;;20.05;38.12
62544;BME280;48597;49.030;1.822;2023-04-08T04:06:55;101479.34;;;20.04;38.16
62544;BME280;48597;49.030;1.822;2023-04-08T04:09:20;101483.44;;;20.03;37.87
62544;BME280;48597;49.030;1.822;2023-04-08T04:11:46;101478.97;;;20.02;37.90
62544;BME280;48597;49.030;1.822;2023-04-08T04:14:11;101477.34;;;20.01;37.96
62544;BME280;48597;49.030;1.822;2023-04-08T04:16:36;101485.59;;;19.99;37.87
62544;BME280;48597;49.030;1.822;2023-04-08T04:19:02;101492.53;;;19.98;37.93
62544;BME280;48597;49.030;1.822;2023-04-08T04:21:27;101492.53;;;19.98;37.90
62544;BME280;48597;49.030;1.822;2023-04-08T04:23:53;101495.84;;;19.96;37.98
62544;BME280;48597;49.030;1.822;2023-04-08T04:26:19;101491.38;;;19.95;37.92
62544;BME280;48597;49.030;1.822;2023-04-08T04:28:45;101486.06;;;19.94;38.06
62544;BME280;48597;49.030;1.822;2023-04-08T04:31:17;101499.13;;;19.95;38.07
62544;BME280;48597;49.030;1.822;2023-04-08T04:33:44;101495.09;;;19.92;37.93
62544;BME280;48597;49.030;1.822;2023-04-08T04:36:09;101496.31;;;19.91;38.00
62544;BME280;48597;49.030;1.822;2023-04-08T04:38:35;101500.88;;;19.89;37.95
62544;BME280;48597;49.030;1.822;2023-04-08T04:41:01;101498.81;;;19.89;38.00
62544;BME280;48597;49.030;1.822;2023-04-08T04:43:26;101502.09;;;19.88;37.99
62544;BME280;48597;49.030;1.822;2023-04-08T04:45:51;101506.22;;;19.87;37.95
62544;BME280;48597;49.030;1.822;2023-04-08T04:48:17;101507.47;;;19.86;37.92
62544;BME280;48597;49.030;1.822;2023-04-08T04:50:42;101509.16;;;19.83;37.96
62544;BME280;48597;49.030;1.822;2023-04-08T04:53:07;101518.97;;;19.82;37.82
62544;BME280;48597;49.030;1.822;2023-04-08T04:55:33;101523.91;;;19.82;37.81
62544;BME280;48597;49.030;1.822;2023-04-08T04:57:58;101525.13;;;19.81;37.69
62544;BME280;48597;49.030;1.822;2023-04-08T05:00:24;101530.03;;;19.80;37.84
62544;BME280;48597;49.030;1.822;2023-04-08T05:02:49;101530.47;;;19.79;37.76
62544;BME280;48597;49.030;1.822;2023-04-08T05:05:15;101525.19;;;19.77;37.88
62544;BME280;48597;49.030;1.822;2023-04-08T05:07:40;101530.53;;;19.75;37.82
62544;BME280;48597;49.030;1.822;2023-04-08T05:10:06;101533.38;;;19.75;37.83
62544;BME280;48597;49.030;1.822;2023-04-08T05:12:31;101536.69;;;19.74;37.81
62544;BME280;48597;49.030;1.822;2023-04-08T05:14:57;101539.53;;;19.74;37.61
62544;BME280;48597;49.030;1.822;2023-04-08T05:17:26;101532.66;;;19.71;37.85
62544;BME280;48597;49.030;1.822;2023-04-08T05:19:51;101533.09;;;19.70;37.67
62544;BME280;48597;49.030;1.822;2023-04-08T05:22:17;101533.09;;;19.70;37.75
62544;BME280;48597;49.030;1.822;2023-04-08T05:24:43;101542.91;;;19.69;37.75
62544;BME280;48597;49.030;1.822;2023-04-08T05:27:08;101551.09;;;19.67;37.78
62544;BME280;48597;49.030;1.822;2023-04-08T05:29:34;101545.81;;;19.65;37.77
62544;BME280;48597;49.030;1.822;2023-04-08T05:31:59;101545.81;;;19.65;37.72
62544;BME280;48597;49.030;1.822;2023-04-08T05:34:25;101551.97;;;19.63;37.85
62544;BME280;48597;49.030;1.822;2023-04-08T05:36:50;101554.00;;;19.63;37.77
62544;BME280;48597;49.030;1.822;2023-04-08T05:39:17;101556.88;;;19.63;37.69
62544;BME280;48597;49.030;1.822;2023-04-08T05:41:42;101558.13;;;19.62;37.72
62544;BME280;48597;49.030;1.822;2023-04-08T05:44:09;101563.03;;;19.61;37.59
62544;BME280;48597;49.030;1.822;2023-04-08T05:46:34;101570.78;;;19.61;37.72
62544;BME280;48597;49.030;1.822;2023-04-08T05:48:59;101569.97;;;19.60;37.64
62544;BME280;48597;49.030;1.822;2023-04-08T05:51:25;101574.13;;;19.59;37.63
62544;BME280;48597;49.030;1.822;2023-04-08T05:53:50;101576.97;;;19.59;37.49
62544;BME280;48597;49.030;1.822;2023-04-08T05:56:16;101581.88;;;19.59;37.44
62544;BME280;48597;49.030;1.822;2023-04-08T05:58:41;101582.69;;;19.59;37.20
62544;BME280;48597;49.030;1.822;2023-04-08T06:01:07;101586.38;;;19.60;37.32
62544;BME280;48597;49.030;1.822;2023-04-08T06:03:32;101584.75;;;19.59;37.33
62544;BME280;48597;49.030;1.822;2023-04-08T06:05:58;101582.25;;;19.61;37.35
62544;BME280;48597;49.030;1.822;2023-04-08T06:08:23;101575.72;;;19.60;37.03
62544;BME280;48597;49.030;1.822;2023-04-08T06:10:49;101580.66;;;19.60;37.37
62544;BME280;48597;49.030;1.822;2023-04-08T06:13:15;101583.03;;;19.61;37.30
62544;BME280;48597;49.030;1.822;2023-04-08T06:15:41;101577.78;;;19.60;37.23
62544;BME280;48597;49.030;1.822;2023-04-08T06:18:06;101588.75;;;19.61;37.19
62544;BME280;48597;49.030;1.822;2023-04-08T06:20:32;101595.28;;;19.62;37.14
62544;BME280;48597;49.030;1.822;2023-04-08T06:22:57;101596.91;;;19.63;37.19
62544;BME280;48597;49.030;1.822;2023-04-08T06:25:22;101600.59;;;19.63;37.17
62544;BME280;48597;49.030;1.822;2023-04-08T06:27:48;101609.16;;;19.63;37.19
62544;BME280;48597;49.030;1.822;2023-04-08T06:30:14;101607.13;;;19.64;37.16
62544;BME280;48597;49.030;1.822;2023-04-08T06:32:40;101609.56;;;19.66;37.11
62544;BME280;48597;49.030;1.822;2023-04-08T06:35:06;101615.28;;;19.66;37.19
62544;BME280;48597;49.030;1.822;2023-04-08T06:37:32;101612.41;;;19.66;37.13
62544;BME280;48597;49.030;1.822;2023-04-08T06:39:58;101625.47;;;19.67;37.11
62544;BME280;48597;49.030;1.822;2023-04-08T06:42:23;101621.00;;;19.66;37.16
62544;BME280;48597;49.030;1.822;2023-04-08T06:44:49;101621.00;;;19.66;37.08
62544;BME280;48597;49.030;1.822;2023-04-08T06:47:14;101626.28;;;19.67;37.03
62544;BME280;48597;49.030;1.822;2023-04-08T06:49:41;101622.63;;;19.67;37.01
62544;BME280;48597;49.030;1.822;2023-04-08T06:52:06;101630.75;;;19.68;36.90
62544;BME280;48597;49.030;1.822;2023-04-08T06:54:32;101623.41;;;19.67;37.01
62544;BME280;48597;49.030;1.822;2023-04-08T06:56:57;101635.69;;;19.68;36.99
62544;BME280;48597;49.030;1.822;2023-04-08T06:59:23;101633.63;;;19.68;37.06
62544;BME280;48597;49.030;1.822;2023-04-08T07:01:48;101631.16;;;19.70;36.92
62544;BME280;48597;49.030;1.822;2023-04-08T07:04:13;101623.81;;;19.69;36.92
62544;BME280;48597;49.030;1.822;2023-04-08T07:06:39;101636.88;;;19.70;36.70
62544;BME280;48597;49.030;1.822;2023-04-08T07:09:04;101638.50;;;19.71;36.97
62544;BME280;48597;49.030;1.822;2023-04-08T07:11:30;101638.06;;;19.73;37.02
62544;BME280;48597;49.030;1.822;2023-04-08T07:13:55;101637.59;;;19.74;36.92
62544;BME280;48597;49.030;1.822;2023-04-08T07:16:21;101640.03;;;19.76;36.81
62544;BME280;48597;49.030;1.822;2023-04-08T07:18:46;101645.31;;;19.77;36.86
62544;BME280;48597;49.030;1.822;2023-04-08T07:21:12;101644.91;;;19.79;36.90
62544;BME280;48597;49.030;1.822;2023-04-08T07:23:38;101636.69;;;19.81;36.86
62544;BME280;48597;49.030;1.822;2023-04-08T07:26:03;101645.28;;;19.81;36.77
62544;BME280;48597;49.030;1.822;2023-04-08T07:28:30;101645.66;;;19.83;36.85
62544;BME280;48597;49.030;1.822;2023-04-08T07:30:55;101646.47;;;19.83;36.82
62544;BME280;48597;49.030;1.822;2023-04-08T07:33:21;101645.59;;;19.86;36.80
62544;BME280;48597;49.030;1.822;2023-04-08T07:35:47;101648.03;;;19.88;36.73
62544;BME280;48597;49.030;1.822;2023-04-08T07:38:13;101653.75;;;19.88;36.69
62544;BME280;48597;49.030;1.822;2023-04-08T07:40:38;101659.84;;;19.90;36.71
62544;BME280;48597;49.030;1.822;2023-04-08T07:43:04;101660.66;;;19.90;36.72
62544;BME280;48597;49.030;1.822;2023-04-08T07:45:29;101665.13;;;19.91;36.65
62544;BME280;48597;49.030;1.822;2023-04-08T07:47:55;101659.81;;;19.93;36.54
62544;BME280;48597;49.030;1.822;2023-04-08T07:50:20;101652.03;;;19.94;36.98
62544;BME280;48597;49.030;1.822;2023-04-08T07:52:46;101649.97;;;19.94;36.56
62544;BME280;48597;49.030;1.822;2023-04-08T07:55:12;101656.09;;;19.96;36.55
62544;BME280;48597;49.030;1.822;2023-04-08T07:57:38;101667.91;;;19.98;36.47
62544;BME280;48597;49.030;1.822;2023-04-08T08:00:03;101654.41;;;19.99;36.53
62544;BME280;48597;49.030;1.822;2023-04-08T08:02:29;101656.81;;;20.01;36.44
62544;BME280;48597;49.030;1.822;2023-04-08T08:04:54;101669.88;;;20.02;36.44
62544;BME280;48597;49.030;1.822;2023-04-08T08:07:20;101664.16;;;20.02;36.31
62544;BME280;48597;49.030;1.822;2023-04-08T08:09:45;101663.34;;;20.01;36.48
62544;BME280;48597;49.030;1.822;2023-04-08T08:12:10;101659.25;;;20.02;36.54
62544;BME280;48597;49.030;1.822;2023-04-08T08:14:37;101670.25;;;20.04;36.54
62544;BME280;48597;49.030;1.822;2023-04-08T08:17:02;101671.88;;;20.05;36.70
62544;BME280;48597;49.030;1.822;2023-04-08T08:19:28;101682.09;;;20.06;37.10
62544;BME280;48597;49.030;1.822;2023-04-08T08:21:53;101671.88;;;20.05;37.52
62544;BME280;48597;49.030;1.822;2023-04-08T08:24:20;101681.28;;;20.05;37.49
62544;BME280;48597;49.030;1.822;2023-04-08T08:26:45;101678.41;;;20.05;37.84
62544;BME280;48597;49.030;1.822;2023-04-08T08:29:13;101682.09;;;20.06;38.32
62544;BME280;48597;49.030;1.822;2023-04-08T08:31:38;101680.84;;;20.07;38.36
62544;BME280;48597;49.030;1.822;2023-04-08T08:34:04;101686.16;;;20.08;38.33
62544;BME280;48597;49.030;1.822;2023-04-08T08:36:29;101682.06;;;20.09;38.33
62544;BME280;48597;49.030;1.822;2023-04-08T08:38:55;101685.72;;;20.10;38.26
62544;BME280;48597;49.030;1.822;2023-04-08T08:41:20;101678.31;;;20.12;40.32
62544;BME280;48597;49.030;1.822;2023-04-08T08:43:46;101686.91;;;20.12;40.59
62544;BME280;48597;49.030;1.822;2023-04-08T08:46:15;101682.78;;;20.13;40.88
62544;BME280;48597;49.030;1.822;2023-04-08T08:48:41;101693.41;;;20.13;40.60
62544;BME280;48597;49.030;1.822;2023-04-08T08:51:10;101690.13;;;20.14;40.50
62544;BME280;48597;49.030;1.822;2023-04-08T08:53:36;101687.69;;;20.13;40.62
62544;BME280;48597;49.030;1.822;2023-04-08T08:56:02;101693.41;;;20.13;40.72
62544;BME280;48597;49.030;1.822;2023-04-08T08:58:27;101694.22;;;20.13;40.74
62544;BME280;48597;49.030;1.822;2023-04-08T09:00:53;101695.84;;;20.14;40.46
62544;BME280;48597;49.030;1.822;2023-04-08T09:03:26;101694.59;;;20.15;40.55
62544;BME280;48597;49.030;1.822;2023-04-08T09:05:56;101691.38;;;20.13;41.05
62544;BME280;48597;49.030;1.822;2023-04-08T09:08:32;101698.72;;;20.14;41.52
62544;BME280;48597;49.030;1.822;2023-04-08T09:11:18;101693.81;;;20.15;41.81
62544;BME280;48597;49.030;1.822;2023-04-08T09:13:44;101690.94;;;20.15;41.66
62544;BME280;48597;49.030;1.822;2023-04-08T09:16:12;101693.81;;;20.15;41.50
62544;BME280;48597;49.030;1.822;2023-04-08T09:18:39;101699.13;;;20.13;41.71
62544;BME280;48597;49.030;1.822;2023-04-08T09:21:09;101689.31;;;20.14;41.90
62544;BME280;48597;49.030;1.822;2023-04-08T09:23:51;101695.03;;;20.14;41.68
62544;BME280;48597;49.030;1.822;2023-04-08T09:26:18;101699.13;;;20.13;41.99
62544;BME280;48597;49.030;1.822;2023-04-08T09:29:03;101696.66;;;20.15;41.68
62544;BME280;48597;49.030;1.822;2023-04-08T09:31:33;101693.81;;;20.15;42.04
62544;BME280;48597;49.030;1.822;2023-04-08T09:34:11;101706.50;;;20.14;41.35
62544;BME280;48597;49.030;1.822;2023-04-08T09:36:37;101699.94;;;20.13;42.02
62544;BME280;48597;49.030;1.822;2023-04-08T09:39:03;101702.00;;;20.13;42.06
62544;BME280;48597;49.030;1.822;2023-04-08T09:41:32;101707.72;;;20.13;41.98
62544;BME280;48597;49.030;1.822;2023-04-08T09:43:58;101700.75;;;20.14;42.18
62544;BME280;48597;49.030;1.822;2023-04-08T09:46:41;101704.09;;;20.12;42.19
62544;BME280;48597;49.030;1.822;2023-04-08T09:49:14;101704.09;;;20.12;42.14
62544;BME280;48597;49.030;1.822;2023-04-08T09:54:31;101690.56;;;20.13;42.19
62544;BME280;48597;49.030;1.822;2023-04-08T09:57:04;101704.09;;;20.12;42.01
62544;BME280;48597;49.030;1.822;2023-04-08T09:59:35;101703.28;;;20.12;42.38
62544;BME280;48597;49.030;1.822;2023-04-08T10:02:06;101701.22;;;20.12;42.32
62544;BME280;48597;49.030;1.822;2023-04-08T10:04:37;101693.41;;;20.13;42.22
62544;BME280;48597;49.030;1.822;2023-04-08T10:07:05;101695.13;;;20.10;42.41
62544;BME280;48597;49.030;1.822;2023-04-08T10:09:32;101695.13;;;20.10;42.44
62544;BME280;48597;49.030;1.822;2023-04-08T10:11:57;101688.59;;;20.10;42.25
62544;BME280;48597;49.030;1.822;2023-04-08T10:14:23;101682.06;;;20.09;42.27
62544;BME280;48597;49.030;1.822;2023-04-08T10:17:24;101685.72;;;20.10;41.68
62544;BME280;48597;49.030;1.822;2023-04-08T10:19:51;101691.88;;;20.08;42.12
62544;BME280;48597;49.030;1.822;2023-04-08T10:27:43;101686.16;;;20.08;42.10
62544;BME280;48597;49.030;1.822;2023-04-08T10:32:53;101681.66;;;20.07;41.77
62544;BME280;48597;49.030;1.822;2023-04-08T10:35:30;101686.16;;;20.08;41.95
62544;BME280;48597;49.030;1.822;2023-04-08T10:37:57;101681.66;;;20.07;41.53
62544;BME280;48597;49.030;1.822;2023-04-08T10:40:23;101678.81;;;20.07;41.95
62544;BME280;48597;49.030;1.822;2023-04-08T10:42:58;101673.88;;;20.08;41.93
62544;BME280;48597;49.030;1.822;2023-04-08T10:45:24;101671.47;;;20.06;41.77
62544;BME280;48597;49.030;1.822;2023-04-08T10:47:49;101665.72;;;20.06;41.97
62544;BME280;48597;49.030;1.822;2023-04-08T10:50:17;101664.50;;;20.07;41.80
62544;BME280;48597;49.030;1.822;2023-04-08T10:52:50;101674.69;;;20.08;41.58
62544;BME280;48597;49.030;1.822;2023-04-08T10:55:27;101663.69;;;20.07;41.63
62544;BME280;48597;49.030;1.822;2023-04-08T10:57:53;101668.59;;;20.06;41.90
62544;BME280;48597;49.030;1.822;2023-04-08T11:00:31;101672.28;;;20.07;41.98
62544;BME280;48597;49.030;1.822;2023-04-08T11:03:02;101666.53;;;20.07;42.23
62544;BME280;48597;49.030;1.822;2023-04-08T11:05:27;101661.25;;;20.05;42.31
62544;BME280;48597;49.030;1.822;2023-04-08T11:07:53;101660.00;;;20.06;42.11
62544;BME280;48597;49.030;1.822;2023-04-08T11:10:19;101653.47;;;20.06;42.37
62544;BME280;48597;49.030;1.822;2023-04-08T11:12:44;101657.97;;;20.07;42.50
62544;BME280;48597;49.030;1.822;2023-04-08T11:15:12;101648.56;;;20.06;42.92
62544;BME280;48597;49.030;1.822;2023-04-08T11:17:38;101648.56;;;20.06;43.28
62544;BME280;48597;49.030;1.822;2023-04-08T11:20:03;101649.81;;;20.05;43.12
62544;BME280;48597;49.030;1.822;2023-04-08T11:22:30;101639.97;;;20.06;43.21
62544;BME280;48597;49.030;1.822;2023-04-08T11:24:58;101636.31;;;20.06;43.64
62544;BME280;48597;49.030;1.822;2023-04-08T11:27:26;101642.03;;;20.06;43.71
62544;BME280;48597;49.030;1.822;2023-04-08T11:29:55;101642.03;;;20.06;43.07
62544;BME280;48597;49.030;1.822;2023-04-08T11:32:21;101642.03;;;20.06;42.64
62544;BME280;48597;49.030;1.822;2023-04-08T11:34:48;101648.56;;;20.06;43.21
62544;BME280;48597;49.030;1.822;2023-04-08T11:37:14;101644.09;;;20.05;42.90
62544;BME280;48597;49.030;1.822;2023-04-08T11:39:42;101638.34;;;20.05;42.22
62544;BME280;48597;49.030;1.822;2023-04-08T11:42:07;101634.69;;;20.05;42.18
62544;BME280;48597;49.030;1.822;2023-04-08T11:44:33;101641.22;;;20.05;42.64
62544;BME280;48597;49.030;1.822;2023-04-08T11:46:58;101628.97;;;20.05;42.83
62544;BME280;48597;49.030;1.822;2023-04-08T11:49:26;101635.50;;;20.05;42.84
62544;BME280;48597;49.030;1.822;2023-04-08T11:51:58;101626.47;;;20.07;42.48
62544;BME280;48597;49.030;1.822;2023-04-08T11:54:31;101630.56;;;20.06;42.39
62544;BME280;48597;49.030;1.822;2023-04-08T11:56:57;101631.38;;;20.06;42.22
62544;BME280;48597;49.030;1.822;2023-04-08T11:59:24;101631.38;;;20.06;42.53
62544;BME280;48597;49.030;1.822;2023-04-08T12:01:52;101626.47;;;20.07;42.31
62544;BME280;48597;49.030;1.822;2023-04-08T12:04:18;101627.72;;;20.06;42.45
62544;BME280;48597;49.030;1.822;2023-04-08T12:06:43;101631.38;;;20.06;42.46
62544;BME280;48597;49.030;1.822;2023-04-08T12:09:12;101625.66;;;20.06;42.37
62544;BME280;48597;49.030;1.822;2023-04-08T12:11:37;101614.22;;;20.06;42.22
62544;BME280;48597;49.030;1.822;2023-04-08T12:14:02;101619.94;;;20.06;42.17
62544;BME280;48597;49.030;1.822;2023-04-08T12:16:28;101626.47;;;20.07;42.33
62544;BME280;48597;49.030;1.822;2023-04-08T12:18:54;101617.88;;;20.07;42.40
62544;BME280;48597;49.030;1.822;2023-04-08T12:21:19;101616.28;;;20.06;42.52
62544;BME280;48597;49.030;1.822;2023-04-08T12:23:45;101617.88;;;20.07;42.44
62544;BME280;48597;49.030;1.822;2023-04-08T12:26:10;101612.59;;;20.05;42.34
62544;BME280;48597;49.030;1.822;2023-04-08T12:28:37;101614.22;;;20.06;42.44
62544;BME280;48597;49.030;1.822;2023-04-08T12:31:03;101612.97;;;20.07;42.25
62544;BME280;48597;49.030;1.822;2023-04-08T12:33:28;101609.31;;;20.07;42.36
62544;BME280;48597;49.030;1.822;2023-04-08T12:35:54;101608.50;;;20.06;42.36
62544;BME280;48597;49.030;1.822;2023-04-08T12:38:22;101610.94;;;20.08;42.35
62544;BME280;48597;49.030;1.822;2023-04-08T12:40:48;101610.94;;;20.08;42.31
62544;BME280;48597;49.030;1.822;2023-04-08T12:43:13;101614.22;;;20.06;42.39
62544;BME280;48597;49.030;1.822;2023-04-08T12:45:38;101605.19;;;20.08;42.22
62544;BME280;48597;49.030;1.822;2023-04-08T12:48:04;101598.66;;;20.07;42.23
62544;BME280;48597;49.030;1.822;2023-04-08T12:50:30;101603.59;;;20.07;42.39
62544;BME280;48597;49.030;1.822;2023-04-08T12:52:55;101602.34;;;20.08;42.05
62544;BME280;48597;49.030;1.822;2023-04-08T12:55:20;101598.66;;;20.07;42.24
62544;BME280;48597;49.030;1.822;2023-04-08T12:57:49;101598.66;;;20.07;42.24
62544;BME280;48597;49.030;1.822;2023-04-08T13:00:15;101600.72;;;20.07;42.22
62544;BME280;48597;49.030;1.822;2023-04-08T13:02:40;101605.19;;;20.08;42.12